Time;durP1;ratioP1;P1;durP2;ratioP2;P2;SDS_P1;SDS_P2;PMS_P1;PMS_P2;Temp;Humidity;BMP_temperature;BMP_pressure;BME280_temperature;BME280_humidity;BME280_pressure;Samples;Min_cycle;Max_cycle;Signal;HPM_P1;HPM_P2
2023/07/21 00:01:06;;;;;;;4.70;1.90;;;;;;;14.68;85.10;98447.98;105675;1254;73742;-23
2023/07/21 00:03:36;;;;;;;5.60;2.00;;;;;;;14.43;85.20;98444.71;105595;1254;74871;-23
2023/07/21 00:06:06;;;;;;;4.10;2.00;;;;;;;14.14;86.00;98453.39;105678;1254;72666;-22
2023/07/21 00:08:34;;;;;;;1.30;1.00;;;;;;;13.86;87.63;98460.36;105630;1253;61916;-22
2023/07/21 00:11:02;;;;;;;2.20;1.40;;;;;;;14.17;87.40;98459.32;105614;1254;61110;-23
2023/07/21 00:13:29;;;;;;;1.80;1.60;;;;;;;14.52;86.20;98455.46;105646;1257;73700;-22
2023/07/21 00:15:57;;;;;;;4.20;1.70;;;;;;;14.47;85.46;98446.30;105732;1256;74324;-22
2023/07/21 00:18:24;;;;;;;5.00;2.10;;;;;;;14.23;85.84;98444.80;105633;1254;72527;-23
2023/07/21 00:20:51;;;;;;;3.10;1.90;;;;;;;13.96;86.42;98451.81;105655;1253;61042;-23
2023/07/21 00:23:22;;;;;;;3.50;1.40;;;;;;;13.70;87.46;98455.65;105660;1257;61162;-22
2023/07/21 00:25:51;;;;;;;7.30;1.50;;;;;;;14.04;87.43;98454.23;105456;1254;73817;-23
2023/07/21 00:28:18;;;;;;;1.60;1.40;;;;;;;14.41;85.37;98452.58;105655;1254;74227;-22
2023/07/21 00:30:47;;;;;;;4.00;1.80;;;;;;;14.36;84.91;98451.08;105569;1254;72556;-22
2023/07/21 00:33:15;;;;;;;4.20;1.90;;;;;;;14.11;85.38;98453.71;105461;1257;61135;-23
2023/07/21 00:35:42;;;;;;;3.30;1.60;;;;;;;13.82;86.27;98453.39;105573;1257;61056;-22
2023/07/21 00:38:10;;;;;;;2.80;1.20;;;;;;;13.58;87.76;98454.64;105513;1254;73783;-22
2023/07/21 00:40:37;;;;;;;8.80;1.60;;;;;;;13.93;87.60;98454.34;105712;1253;74228;-22
2023/07/21 00:43:05;;;;;;;4.60;1.50;;;;;;;14.32;85.56;98453.11;105625;1254;72588;-22
2023/07/21 00:45:37;;;;;;;3.80;1.70;;;;;;;14.27;84.88;98455.20;105615;1253;61099;-22
2023/07/21 00:48:10;;;;;;;4.10;2.00;;;;;;;14.00;85.54;98456.92;105595;1254;61221;-23
2023/07/21 00:50:42;;;;;;;4.20;2.00;;;;;;;13.68;86.41;98458.33;105550;1262;73576;-23
2023/07/21 00:53:13;;;;;;;1.40;1.30;;;;;;;13.43;87.77;98456.18;105612;1260;73449;-22
2023/07/21 00:55:41;;;;;;;3.40;1.50;;;;;;;13.79;87.84;98456.85;105587;1257;72787;-22
2023/07/21 00:58:09;;;;;;;5.90;1.50;;;;;;;14.17;86.29;98452.22;105680;1257;61131;-23
2023/07/21 01:00:37;;;;;;;2.30;1.80;;;;;;;14.12;85.33;98452.93;105679;1255;61161;-23
2023/07/21 01:03:05;;;;;;;2.40;2.00;;;;;;;13.88;85.86;98451.70;105645;1253;74266;-23
2023/07/21 01:05:33;;;;;;;2.60;2.10;;;;;;;13.61;86.58;98451.45;105684;1259;74457;-22
2023/07/21 01:08:04;;;;;;;3.70;1.40;;;;;;;13.37;87.43;98452.20;105627;1254;70926;-22
2023/07/21 01:10:35;;;;;;;4.60;1.40;;;;;;;13.75;87.45;98445.10;105231;1257;62619;-22
2023/07/21 01:13:02;;;;;;;5.00;1.60;;;;;;;14.17;85.57;98441.09;105577;1260;61122;-22
2023/07/21 01:15:29;;;;;;;2.30;1.50;;;;;;;14.13;84.64;98442.49;105679;1259;73934;-22
2023/07/21 01:17:57;;;;;;;3.80;1.70;;;;;;;13.90;84.79;98445.98;105708;1259;74233;-22
2023/07/21 01:20:25;;;;;;;4.90;1.80;;;;;;;13.58;85.42;98450.48;105676;1254;73176;-23
2023/07/21 01:22:54;;;;;;;1.40;0.90;;;;;;;13.29;86.54;98461.43;105438;1253;61829;-22
2023/07/21 01:25:21;;;;;;;2.90;1.50;;;;;;;13.58;86.78;98460.45;105541;1254;61113;-23
2023/07/21 01:27:49;;;;;;;2.00;1.50;;;;;;;13.94;85.34;98459.16;105623;1254;73810;-23
2023/07/21 01:30:18;;;;;;;5.30;1.30;;;;;;;13.89;84.84;98458.83;105630;1259;74330;-22
2023/07/21 01:32:49;;;;;;;1.80;1.50;;;;;;;13.63;85.48;98464.29;105243;1254;72433;-22
2023/07/21 01:35:17;;;;;;;2.00;1.80;;;;;;;13.31;86.04;98466.98;105440;1254;61116;-22
2023/07/21 01:37:45;;;;;;;2.20;1.10;;;;;;;13.04;87.03;98466.55;105666;1254;61094;-22
2023/07/21 01:40:13;;;;;;;2.80;1.10;;;;;;;13.35;87.28;98472.15;105470;1254;73823;-23
2023/07/21 01:42:44;;;;;;;1.80;1.60;;;;;;;13.74;85.92;98476.52;105447;1253;74275;-23
2023/07/21 01:45:11;;;;;;;4.80;1.70;;;;;;;13.68;85.31;98478.52;105520;1259;72322;-22
2023/07/21 01:47:38;;;;;;;3.00;1.70;;;;;;;13.43;85.64;98475.83;103377;1261;2753343;-22
2023/07/21 01:50:06;;;;;;;6.50;2.40;;;;;;;13.14;86.33;98476.66;105448;1253;61217;-22
2023/07/21 01:52:34;;;;;;;1.80;1.10;;;;;;;12.90;87.57;98479.08;105462;1259;73688;-24
2023/07/21 01:55:09;;;;;;;1.80;1.50;;;;;;;13.24;87.68;98477.30;105585;1254;74620;-22
2023/07/21 01:57:38;;;;;;;3.90;1.60;;;;;;;13.63;85.92;98479.95;105416;1260;71285;-22
2023/07/21 02:00:13;;;;;;;2.20;1.60;;;;;;;13.56;85.46;98487.32;105403;1254;62389;-22
2023/07/21 02:02:46;;;;;;;2.50;1.60;;;;;;;13.30;85.96;98489.05;105659;1255;61171;-22
2023/07/21 02:05:18;;;;;;;5.30;1.80;;;;;;;13.02;86.81;98496.59;105494;1262;72346;-21
2023/07/21 02:07:46;;;;;;;2.10;1.30;;;;;;;12.77;88.11;98502.17;105593;1260;74327;-22
2023/07/21 02:10:13;;;;;;;3.40;1.20;;;;;;;13.11;88.47;98504.05;105678;1254;73007;-22
2023/07/21 02:12:41;;;;;;;5.30;2.10;;;;;;;13.51;86.79;98506.60;105662;1259;61057;-22
2023/07/21 02:15:13;;;;;;;1.90;1.70;;;;;;;13.49;86.33;98508.80;105640;1259;61266;-22
2023/07/21 02:17:41;;;;;;;2.10;1.70;;;;;;;13.26;86.74;98506.71;105691;1253;73924;-22
2023/07/21 02:20:11;;;;;;;4.40;2.20;;;;;;;13.03;87.43;98506.66;105661;1254;74698;-22
2023/07/21 02:22:40;;;;;;;2.30;1.20;;;;;;;12.82;88.34;98505.45;105639;1254;71546;-22
2023/07/21 02:25:12;;;;;;;5.10;1.60;;;;;;;13.18;88.34;98512.73;105568;1260;62580;-22
2023/07/21 02:27:40;;;;;;;;;;;;;;;13.59;86.55;98516.51;105436;1253;61154;-22
2023/07/21 02:30:08;;;;;;;3.70;1.60;;;;;;;13.52;86.07;98523.57;105629;1254;73795;-22
2023/07/21 02:32:36;;;;;;;5.20;2.10;;;;;;;13.28;86.44;98522.19;105646;1259;74341;-22
2023/07/21 02:35:05;;;;;;;4.20;1.80;;;;;;;13.00;87.42;98527.93;105599;1253;72443;-22
2023/07/21 02:37:32;;;;;;;1.80;1.50;;;;;;;12.77;88.78;98529.65;105366;1255;61811;-22
2023/07/21 02:40:00;;;;;;;1.40;1.30;;;;;;;13.15;88.65;98527.86;105503;1260;61181;-22
2023/07/21 02:42:27;;;;;;;1.50;1.30;;;;;;;13.57;86.53;98526.40;105603;1253;73846;-22
2023/07/21 02:44:54;;;;;;;2.50;1.80;;;;;;;13.57;85.44;98532.69;105494;1257;74361;-22
2023/07/21 02:47:21;;;;;;;4.00;2.20;;;;;;;13.32;85.62;98529.92;105489;1254;72630;-22
2023/07/21 02:49:49;;;;;;;5.70;2.30;;;;;;;13.16;86.52;98532.50;105428;1254;61128;-22
2023/07/21 02:52:16;;;;;;;7.40;1.50;;;;;;;13.12;87.38;98532.16;105340;1262;61217;-22
2023/07/21 02:54:46;;;;;;;4.00;2.20;;;;;;;13.69;86.67;98537.39;105599;1254;74339;-22
2023/07/21 02:57:13;;;;;;;3.10;1.90;;;;;;;14.27;83.53;98538.47;105566;1254;74339;-22
2023/07/21 02:59:41;;;;;;;2.20;1.80;;;;;;;14.39;82.16;98539.66;105573;1253;72728;-22
2023/07/21 03:02:08;;;;;;;3.70;2.00;;;;;;;14.29;81.70;98541.27;105488;1254;62881;-23
2023/07/21 03:04:43;;;;;;;2.30;2.10;;;;;;;14.13;82.36;98546.83;105574;1258;61170;-22
2023/07/21 03:07:11;;;;;;;2.30;1.70;;;;;;;14.03;82.74;98552.41;105626;1253;74520;-22
2023/07/21 03:09:41;;;;;;;2.50;1.80;;;;;;;14.55;82.22;98555.08;105391;1258;75933;-22
2023/07/21 03:12:17;;;;;;;4.10;2.00;;;;;;;15.11;79.55;98550.71;105501;1253;71186;-22
2023/07/21 03:15:06;;;;;;;2.90;2.40;;;;;;;15.19;78.72;98551.33;105592;1253;61160;-22
2023/07/21 03:17:46;;;;;;;2.30;1.90;;;;;;;15.10;78.72;98555.27;105580;1255;61276;-23
2023/07/21 03:20:15;;;;;;;5.70;2.20;;;;;;;14.94;79.56;98554.15;105548;1253;73864;-22
2023/07/21 03:22:43;;;;;;;3.10;1.60;;;;;;;14.83;79.75;98560.17;105650;1257;74342;-22
2023/07/21 03:25:13;;;;;;;2.20;2.00;;;;;;;15.29;79.18;98567.65;105401;1257;72759;-22
2023/07/21 03:27:40;;;;;;;2.80;2.10;;;;;;;15.75;76.75;98564.42;105608;1254;61143;-22
2023/07/21 03:30:11;;;;;;;2.90;2.00;;;;;;;15.78;76.36;98566.19;105658;1254;61182;-22
2023/07/21 03:32:45;;;;;;;4.80;2.20;;;;;;;15.71;76.75;98567.20;105205;1261;73689;-22
2023/07/21 03:35:14;;;;;;;2.90;2.10;;;;;;;15.56;77.21;98566.50;105617;1253;74144;-22
2023/07/21 03:37:43;;;;;;;4.60;2.40;;;;;;;15.46;77.83;98564.27;105563;1261;72767;-22
2023/07/21 03:40:11;;;;;;;4.00;1.50;;;;;;;15.37;78.13;98564.05;105641;1253;61116;-22
2023/07/21 03:42:39;;;;;;;5.80;1.50;;;;;;;15.93;77.46;98562.63;105369;1259;61166;-22
2023/07/21 03:45:08;;;;;;;2.50;2.10;;;;;;;16.56;74.95;98565.90;105499;1259;72405;-23
2023/07/21 03:47:36;;;;;;;2.80;2.00;;;;;;;16.69;73.97;98566.73;105722;1253;74317;-23
2023/07/21 03:50:07;;;;;;;3.60;2.40;;;;;;;16.55;73.85;98571.49;105487;1254;72471;-22
2023/07/21 03:52:35;;;;;;;5.30;2.90;;;;;;;16.34;74.65;98572.98;105213;1254;60954;-22
2023/07/21 03:55:03;;;;;;;4.00;2.60;;;;;;;16.12;75.81;98572.27;105548;1258;61099;-22
2023/07/21 03:57:30;;;;;;;2.10;1.90;;;;;;;15.91;77.13;98573.67;105643;1253;73981;-23
2023/07/21 03:59:57;;;;;;;4.80;2.40;;;;;;;16.34;76.59;98575.41;105635;1253;74176;-22
2023/07/21 04:02:25;;;;;;;3.20;2.20;;;;;;;16.79;74.59;98572.76;105619;1257;72324;-22
2023/07/21 04:04:55;;;;;;;3.90;2.70;;;;;;;16.87;74.08;98570.68;105679;1253;61164;-23
2023/07/21 04:07:23;;;;;;;3.70;2.80;;;;;;;16.72;74.42;98570.05;105488;1261;61068;-22
2023/07/21 04:09:50;;;;;;;4.00;2.80;;;;;;;16.57;75.17;98574.08;105519;1253;73503;-23
2023/07/21 04:12:18;;;;;;;3.30;3.00;;;;;;;16.39;75.98;98577.35;105538;1258;73410;-22
2023/07/21 04:14:45;;;;;;;4.60;3.00;;;;;;;16.17;76.34;98579.02;105598;1254;72610;-22
2023/07/21 04:17:12;;;;;;;2.30;2.10;;;;;;;16.21;77.74;98577.43;105446;1253;61783;-22
2023/07/21 04:19:40;;;;;;;2.80;2.10;;;;;;;16.85;76.63;98576.83;105515;1259;61211;-23
2023/07/21 04:22:07;;;;;;;5.00;2.50;;;;;;;17.45;74.18;98574.13;105696;1254;74199;-23
2023/07/21 04:24:36;;;;;;;4.40;2.80;;;;;;;17.64;73.30;98578.28;105742;1259;74348;-22
2023/07/21 04:27:04;;;;;;;5.80;3.20;;;;;;;17.49;72.90;98580.95;105658;1254;72552;-23
2023/07/21 04:29:34;;;;;;;3.40;3.00;;;;;;;17.29;74.32;98582.09;105662;1254;61828;-22
2023/07/21 04:32:05;;;;;;;3.70;3.00;;;;;;;17.13;75.12;98585.94;105653;1258;61121;-22
2023/07/21 04:34:33;;;;;;;5.80;3.00;;;;;;;16.99;75.19;98585.36;105685;1254;73726;-22
2023/07/21 04:37:00;;;;;;;2.70;2.00;;;;;;;16.92;76.63;98589.88;105583;1256;73187;-23
2023/07/21 04:39:35;;;;;;;3.30;2.30;;;;;;;17.48;75.41;98593.33;105603;1257;72541;-22
2023/07/21 04:42:02;;;;;;;3.60;2.50;;;;;;;17.96;73.86;98596.48;105622;1257;61149;-22
2023/07/21 04:44:29;;;;;;;2.50;2.10;;;;;;;17.97;73.49;98606.48;105414;1259;61222;-22
2023/07/21 04:46:56;;;;;;;4.70;2.30;;;;;;;17.91;74.23;98607.21;105612;1254;73558;-22
2023/07/21 04:49:31;;;;;;;3.60;3.00;;;;;;;17.69;74.10;98605.52;105706;1255;74246;-23
2023/07/21 04:51:58;;;;;;;4.70;2.50;;;;;;;17.45;74.60;98605.88;105584;1259;70248;-22
2023/07/21 04:54:25;;;;;;;3.80;2.30;;;;;;;17.22;75.04;98607.23;105504;1254;61242;-22
2023/07/21 04:56:52;;;;;;;6.10;2.40;;;;;;;17.15;75.44;98610.42;105601;1259;61282;-22
2023/07/21 04:59:20;;;;;;;8.60;2.20;;;;;;;17.62;74.77;98605.51;105710;1254;73516;-22
2023/07/21 05:01:47;;;;;;;4.60;2.60;;;;;;;17.89;73.94;98602.52;105565;1259;74216;-22
2023/07/21 05:04:20;;;;;;;5.30;2.10;;;;;;;17.70;73.68;98601.96;105604;1254;73078;-23
2023/07/21 05:06:54;;;;;;;7.00;2.20;;;;;;;17.53;74.27;98607.95;105445;1253;61161;-22
2023/07/21 05:09:21;;;;;;;3.10;1.70;;;;;;;17.44;74.66;98607.80;105561;1256;61141;-22
2023/07/21 05:11:48;;;;;;;3.90;2.20;;;;;;;17.40;75.42;98609.63;105607;1254;73544;-22
2023/07/21 05:14:34;;;;;;;2.30;1.30;;;;;;;17.41;75.69;98611.65;105609;1258;74328;-22
2023/07/21 05:17:20;;;;;;;1.70;1.60;;;;;;;18.10;73.66;98608.64;105414;1254;72679;-23
2023/07/21 05:19:50;;;;;;;2.60;1.70;;;;;;;18.37;71.67;98609.45;105471;1260;61459;-22
2023/07/21 05:22:31;;;;;;;2.30;1.90;;;;;;;18.34;71.76;98609.32;105599;1259;61103;-22
2023/07/21 05:24:58;;;;;;;3.20;2.10;;;;;;;18.40;72.42;98614.55;105574;1253;74344;-23
2023/07/21 05:27:25;;;;;;;2.20;1.60;;;;;;;18.46;72.07;98611.37;105498;1254;74328;-22
2023/07/21 05:29:54;;;;;;;2.40;1.80;;;;;;;18.49;71.92;98609.81;105604;1257;72767;-22
2023/07/21 05:32:22;;;;;;;2.30;1.90;;;;;;;18.56;72.26;98612.59;105637;1254;61151;-22
2023/07/21 05:35:07;;;;;;;3.50;2.30;;;;;;;18.60;71.77;98613.59;105503;1255;61160;-22
2023/07/21 05:37:35;;;;;;;2.50;1.50;;;;;;;18.60;72.75;98617.36;105653;1253;72914;-22
2023/07/21 05:40:03;;;;;;;3.00;1.60;;;;;;;19.11;71.84;98619.50;105646;1254;74746;-22
2023/07/21 05:42:31;;;;;;;3.30;1.50;;;;;;;19.49;70.16;98621.11;105531;1254;72755;-22
2023/07/21 05:45:00;;;;;;;2.10;1.80;;;;;;;19.67;69.12;98620.45;105497;1259;61183;-22
2023/07/21 05:47:27;;;;;;;3.80;1.70;;;;;;;19.60;69.10;98623.30;105643;1259;61174;-22
2023/07/21 05:50:00;;;;;;;3.00;1.80;;;;;;;19.28;69.67;98622.55;105678;1254;73541;-22
2023/07/21 05:52:28;;;;;;;2.80;1.70;;;;;;;19.20;70.55;98620.64;105558;1254;74307;-22
2023/07/21 05:54:55;;;;;;;3.10;2.00;;;;;;;19.18;70.56;98624.04;105580;1253;72661;-22
2023/07/21 05:57:27;;;;;;;3.80;2.10;;;;;;;19.13;70.49;98629.67;105533;1256;61112;-21
2023/07/21 05:59:53;;;;;;;6.30;2.20;;;;;;;19.03;70.73;98631.52;105655;1259;61462;-22
2023/07/21 06:02:22;;;;;;;4.60;1.20;;;;;;;18.91;70.77;98626.11;105686;1253;73849;-24
2023/07/21 06:04:56;;;;;;;2.40;1.60;;;;;;;19.39;69.45;98631.45;105638;1254;74345;-23
2023/07/21 06:07:44;;;;;;;4.50;1.90;;;;;;;19.69;69.52;98626.71;105533;1258;72554;-22
2023/07/21 06:10:30;;;;;;;2.10;1.60;;;;;;;19.64;67.95;98630.05;105604;1255;61115;-22
2023/07/21 06:13:29;;;;;;;2.20;1.90;;;;;;;19.29;69.24;98631.91;105182;1263;61157;-23
2023/07/21 06:16:35;;;;;;;4.90;2.00;;;;;;;19.07;71.08;98636.33;105197;1261;73658;-22
2023/07/21 06:19:03;;;;;;;2.30;2.00;;;;;;;18.97;70.46;98636.85;105089;1260;73170;-24
2023/07/21 06:21:30;;;;;;;2.00;1.80;;;;;;;18.94;71.32;98640.95;105349;1257;72774;-23
2023/07/21 06:23:57;;;;;;;3.20;1.80;;;;;;;19.05;71.50;98640.94;105672;1257;61149;-23
2023/07/21 06:26:25;;;;;;;3.80;1.90;;;;;;;19.12;71.27;98639.46;105616;1255;61173;-22
2023/07/21 06:28:52;;;;;;;2.30;1.60;;;;;;;19.13;69.41;98636.70;105547;1253;73860;-22
2023/07/21 06:31:21;;;;;;;4.20;2.20;;;;;;;19.03;69.70;98640.52;105387;1259;74207;-21
2023/07/21 06:34:22;;;;;;;3.90;1.20;;;;;;;19.03;70.65;98643.92;105126;1254;72867;-21
2023/07/21 06:37:06;;;;;;;3.70;1.80;;;;;;;19.62;68.34;98637.28;105428;1254;61067;-22
2023/07/21 06:39:52;;;;;;;4.40;2.10;;;;;;;19.94;67.45;98635.97;105357;1259;61160;-22
2023/07/21 06:42:44;;;;;;;2.90;2.10;;;;;;;20.06;67.32;98636.93;105420;1254;73832;-22
2023/07/21 06:45:30;;;;;;;2.80;2.20;;;;;;;19.99;67.17;98633.05;105446;1258;74319;-22
2023/07/21 06:48:11;;;;;;;2.50;1.80;;;;;;;19.95;67.77;98637.89;105454;1257;73193;-23
2023/07/21 06:50:56;;;;;;;4.60;2.10;;;;;;;19.59;66.44;98639.21;105430;1258;61176;-24
2023/07/21 06:53:24;;;;;;;2.80;2.10;;;;;;;19.33;69.31;98643.00;105498;1259;61143;-23
2023/07/21 06:55:51;;;;;;;2.90;2.20;;;;;;;19.23;68.42;98641.09;105405;1253;73863;-22
2023/07/21 06:58:18;;;;;;;2.90;2.30;;;;;;;19.22;69.26;98643.34;105396;1259;74972;-22
2023/07/21 07:00:46;;;;;;;7.40;2.40;;;;;;;19.13;69.71;98643.16;105402;1259;72676;-22
2023/07/21 07:03:13;;;;;;;4.20;1.60;;;;;;;19.34;69.91;98640.95;105439;1257;61975;-24
2023/07/21 07:05:46;;;;;;;1.90;1.50;;;;;;;19.99;67.43;98640.17;105484;1253;61171;-22
2023/07/21 07:08:13;;;;;;;3.00;1.60;;;;;;;20.26;65.39;98638.72;105498;1253;73674;-23
2023/07/21 07:10:47;;;;;;;5.40;1.90;;;;;;;20.28;65.84;98640.75;105336;1253;74259;-23
2023/07/21 07:13:14;;;;;;;3.00;2.00;;;;;;;20.02;66.32;98642.77;105272;1257;72699;-24
2023/07/21 07:15:52;;;;;;;2.40;2.00;;;;;;;19.94;66.11;98642.97;105380;1254;61162;-23
2023/07/21 07:18:19;;;;;;;4.20;2.30;;;;;;;20.08;65.95;98643.48;105361;1258;62962;-23
2023/07/21 07:20:52;;;;;;;3.20;2.50;;;;;;;19.97;66.22;98644.33;105324;1253;73545;-23
2023/07/21 07:23:19;;;;;;;4.30;2.20;;;;;;;19.57;67.99;98647.08;105185;1262;72948;-24
2023/07/21 07:25:51;;;;;;;3.80;2.30;;;;;;;19.34;67.55;98649.62;105455;1253;72546;-24
2023/07/21 07:28:19;;;;;;;2.90;2.10;;;;;;;19.43;67.70;98640.38;105190;1257;61106;-23
2023/07/21 07:30:47;;;;;;;3.70;2.60;;;;;;;19.53;67.17;98640.48;105330;1259;61116;-24
2023/07/21 07:33:15;;;;;;;3.70;2.50;;;;;;;19.66;67.81;98646.33;105254;1253;73734;-23
2023/07/21 07:35:52;;;;;;;2.70;2.40;;;;;;;19.77;68.22;98645.98;105514;1259;74430;-23
2023/07/21 07:38:23;;;;;;;3.70;2.90;;;;;;;19.83;67.56;98648.05;105342;1253;70599;-24
2023/07/21 07:40:51;;;;;;;5.00;2.40;;;;;;;19.52;66.85;98655.46;105223;1258;62671;-24
2023/07/21 07:43:17;;;;;;;2.80;2.30;;;;;;;19.56;66.32;98654.98;105261;1260;61140;-24
2023/07/21 07:45:44;;;;;;;6.00;2.40;;;;;;;19.70;67.13;98654.30;105580;1254;73745;-23
2023/07/21 07:48:11;;;;;;;6.70;2.60;;;;;;;19.76;66.13;98660.50;105624;1258;74298;-23
2023/07/21 07:50:41;;;;;;;3.70;2.50;;;;;;;19.90;66.60;98661.59;105474;1253;72741;-23
2023/07/21 07:53:08;;;;;;;4.80;2.50;;;;;;;20.28;66.45;98658.20;105350;1254;61073;-24
2023/07/21 07:55:40;;;;;;;2.20;1.90;;;;;;;20.64;65.78;98655.21;105495;1256;61183;-24
2023/07/21 07:58:07;;;;;;;3.00;2.20;;;;;;;20.77;62.41;98658.14;105217;1254;73905;-23
2023/07/21 08:00:36;;;;;;;5.90;2.70;;;;;;;20.62;62.09;98662.41;105586;1259;74382;-23
2023/07/21 08:03:04;;;;;;;4.90;2.50;;;;;;;20.27;62.77;98665.64;105694;1254;72791;-23
2023/07/21 08:05:32;;;;;;;5.30;2.10;;;;;;;20.44;63.32;98660.48;105465;1254;61181;-24
2023/07/21 08:08:01;;;;;;;4.70;2.10;;;;;;;20.43;61.10;98658.05;105481;1258;61147;-24
2023/07/21 08:10:30;;;;;;;3.50;1.70;;;;;;;20.34;61.75;98664.16;105640;1254;74149;-23
2023/07/21 08:12:58;;;;;;;3.60;1.80;;;;;;;20.60;61.81;98664.29;105570;1254;74244;-23
2023/07/21 08:15:26;;;;;;;1.90;1.70;;;;;;;20.80;60.40;98662.34;105422;1253;72621;-23
2023/07/21 08:17:53;;;;;;;2.10;1.80;;;;;;;20.87;60.49;98663.90;105339;1254;61109;-24
2023/07/21 08:20:20;;;;;;;2.20;2.00;;;;;;;21.10;59.67;98661.92;105527;1260;61416;-24
2023/07/21 08:22:48;;;;;;;14.60;2.60;;;;;;;20.98;59.13;98661.11;105504;1254;73696;-24
2023/07/21 08:25:15;;;;;;;1.90;1.40;;;;;;;20.76;57.75;98663.75;105583;1254;74159;-23
2023/07/21 08:27:43;;;;;;;1.80;1.40;;;;;;;20.69;57.30;98666.34;105514;1254;72363;-22
2023/07/21 08:30:10;;;;;;;5.50;1.40;;;;;;;20.96;57.57;98670.34;105489;1254;61075;-22
2023/07/21 08:32:40;;;;;;;2.50;1.80;;;;;;;21.20;57.18;98675.21;105446;1259;61131;-23
2023/07/21 08:35:08;;;;;;;4.10;1.20;;;;;;;21.00;56.90;98682.68;105359;1253;72968;-23
2023/07/21 08:37:36;;;;;;;3.40;1.10;;;;;;;20.95;57.27;98686.27;105571;1254;74191;-23
2023/07/21 08:40:04;;;;;;;1.50;1.10;;;;;;;20.97;53.24;98687.52;105670;1254;72716;-23
2023/07/21 08:42:31;;;;;;;2.40;1.30;;;;;;;21.13;54.73;98687.10;105690;1254;61187;-23
2023/07/21 08:44:58;;;;;;;4.60;1.60;;;;;;;21.21;56.27;98695.58;105517;1262;61199;-24
2023/07/21 08:47:25;;;;;;;2.50;1.30;;;;;;;21.34;55.14;98695.33;105473;1254;74322;-21
2023/07/21 08:49:52;;;;;;;2.70;1.40;;;;;;;21.40;55.47;98695.24;105614;1254;74291;-22
2023/07/21 08:52:19;;;;;;;1.80;1.30;;;;;;;21.22;55.22;98694.92;105536;1254;73172;-22
2023/07/21 08:54:46;;;;;;;1.40;1.30;;;;;;;21.47;54.49;98696.67;105461;1254;61147;-23
2023/07/21 08:57:14;;;;;;;2.60;1.30;;;;;;;21.72;55.28;98698.30;105473;1259;61170;-23
2023/07/21 08:59:41;;;;;;;3.10;1.40;;;;;;;21.61;54.57;98700.59;105622;1254;73653;-22
2023/07/21 09:02:08;;;;;;;1.40;1.20;;;;;;;21.63;54.24;98701.61;105675;1254;74814;-22
2023/07/21 09:04:36;;;;;;;3.50;1.50;;;;;;;21.82;53.73;98703.09;105586;1254;73102;-23
2023/07/21 09:07:03;;;;;;;1.40;1.30;;;;;;;22.10;52.18;98706.94;105295;1253;61257;-22
2023/07/21 09:09:31;;;;;;;1.40;1.20;;;;;;;22.26;52.12;98706.77;105306;1254;61144;-22
2023/07/21 09:12:03;;;;;;;2.40;1.20;;;;;;;22.22;53.18;98707.27;105534;1254;73806;-23
2023/07/21 09:14:43;;;;;;;1.10;1.00;;;;;;;22.18;51.46;98702.21;105332;1258;74128;-23
2023/07/21 09:17:13;;;;;;;2.00;1.20;;;;;;;22.35;49.73;98704.69;105410;1254;72624;-23
2023/07/21 09:19:42;;;;;;;1.30;1.10;;;;;;;22.42;50.94;98705.33;105205;1254;61154;-23
2023/07/21 09:22:10;;;;;;;1.00;0.90;;;;;;;22.37;50.49;98704.27;105285;1259;61156;-23
2023/07/21 09:24:50;;;;;;;1.10;0.80;;;;;;;22.56;49.16;98711.59;105199;1254;73789;-22
2023/07/21 09:27:19;;;;;;;2.10;1.10;;;;;;;22.87;46.94;98714.14;105260;1253;74207;-23
2023/07/21 09:29:46;;;;;;;0.80;0.80;;;;;;;23.15;47.87;98708.11;105425;1262;72473;-23
2023/07/21 09:32:17;;;;;;;1.00;0.80;;;;;;;23.45;46.96;98710.52;105592;1254;61154;-23
2023/07/21 09:35:04;;;;;;;0.90;0.80;;;;;;;23.60;47.80;98713.81;105485;1262;61109;-23
2023/07/21 09:37:48;;;;;;;1.20;1.10;;;;;;;23.60;46.15;98718.03;105439;1254;73792;-24
2023/07/21 09:40:15;;;;;;;1.30;1.00;;;;;;;23.08;47.99;98718.48;105529;1259;74468;-23
2023/07/21 09:42:43;;;;;;;1.30;0.90;;;;;;;23.28;48.44;98718.01;105417;1253;73220;-23
2023/07/21 09:45:10;;;;;;;0.90;0.80;;;;;;;23.20;45.45;98714.83;105438;1254;61205;-23
2023/07/21 09:47:41;;;;;;;0.70;0.60;;;;;;;23.12;46.77;98716.98;105458;1255;61139;-23
2023/07/21 09:50:11;;;;;;;;;;;;;;;23.22;45.72;98718.41;105374;1259;73782;-23
2023/07/21 09:52:39;;;;;;;2.50;0.70;;;;;;;23.54;46.26;98723.66;105486;1259;74339;-23
2023/07/21 09:55:11;;;;;;;1.30;0.70;;;;;;;23.65;43.45;98716.10;105456;1254;72444;-23
2023/07/21 09:57:42;;;;;;;0.80;0.50;;;;;;;23.58;43.97;98717.79;105265;1261;61182;-23
2023/07/21 10:00:14;;;;;;;1.10;0.70;;;;;;;23.62;43.53;98717.48;105646;1259;61147;-23
2023/07/21 10:02:47;;;;;;;0.80;0.60;;;;;;;23.92;43.28;98721.60;105470;1254;73780;-23
2023/07/21 10:05:14;;;;;;;0.80;0.50;;;;;;;24.04;44.34;98718.88;105623;1254;73179;-23
2023/07/21 10:07:43;;;;;;;1.60;0.80;;;;;;;23.94;44.49;98720.77;105596;1260;72661;-23
2023/07/21 10:10:10;;;;;;;0.50;0.50;;;;;;;24.03;43.04;98719.29;105268;1254;61186;-23
2023/07/21 10:12:56;;;;;;;0.70;0.60;;;;;;;24.26;42.24;98714.14;105278;1262;61126;-23
2023/07/21 10:15:30;;;;;;;4.30;0.70;;;;;;;24.25;44.29;98715.30;105141;1254;73736;-23
2023/07/21 10:18:03;;;;;;;1.60;0.70;;;;;;;24.38;43.45;98721.56;105261;1262;74174;-23
2023/07/21 10:20:50;;;;;;;0.70;0.50;;;;;;;24.31;44.61;98718.83;105635;1253;72636;-23
2023/07/21 10:23:22;;;;;;;1.70;0.70;;;;;;;24.37;41.53;98720.80;105661;1259;61273;-22
2023/07/21 10:26:00;;;;;;;0.50;0.50;;;;;;;24.46;42.09;98720.20;105674;1254;61108;-22
2023/07/21 10:28:46;;;;;;;1.30;0.60;;;;;;;24.46;41.42;98712.95;105661;1260;72650;-22
2023/07/21 10:31:25;;;;;;;1.50;0.60;;;;;;;24.42;42.29;98719.88;105651;1253;73398;-22
2023/07/21 10:34:10;;;;;;;2.10;0.60;;;;;;;24.45;43.14;98715.54;105613;1254;73143;-22
2023/07/21 10:36:52;;;;;;;1.40;0.60;;;;;;;24.44;41.44;98712.00;105576;1254;61244;-22
2023/07/21 10:39:21;;;;;;;1.00;0.60;;;;;;;24.58;42.56;98705.80;105488;1254;61135;-24
2023/07/21 10:41:56;;;;;;;0.70;0.70;;;;;;;24.59;42.98;98704.77;105224;1254;73795;-22
2023/07/21 10:44:23;;;;;;;0.90;0.50;;;;;;;24.41;41.27;98708.55;105466;1259;73027;-22
2023/07/21 10:46:51;;;;;;;0.50;0.50;;;;;;;24.15;42.44;98711.03;105564;1257;72759;-22
2023/07/21 10:49:19;;;;;;;1.30;0.70;;;;;;;24.25;42.24;98713.42;105718;1254;61086;-23
2023/07/21 10:51:47;;;;;;;0.90;0.60;;;;;;;24.34;42.43;98716.24;105634;1260;61144;-23
2023/07/21 10:54:15;;;;;;;1.90;0.60;;;;;;;24.69;41.73;98710.29;105359;1254;73700;-22
2023/07/21 10:56:43;;;;;;;0.60;0.60;;;;;;;25.04;41.68;98709.48;105494;1253;74710;-22
2023/07/21 10:59:15;;;;;;;0.80;0.60;;;;;;;25.05;41.02;98707.96;105249;1260;72676;-22
2023/07/21 11:01:50;;;;;;;1.50;0.70;;;;;;;24.66;41.91;98706.73;105322;1259;61872;-22
2023/07/21 11:04:23;;;;;;;0.50;0.50;;;;;;;24.65;42.97;98709.20;105292;1256;61153;-22
2023/07/21 11:06:58;;;;;;;0.90;0.50;;;;;;;25.04;41.34;98693.05;105513;1258;73862;-22
2023/07/21 11:09:26;;;;;;;0.70;0.70;;;;;;;25.27;40.35;98685.67;105393;1259;74820;-22
2023/07/21 11:11:57;;;;;;;39.70;3.70;;;;;;;25.03;40.84;98686.06;105335;1254;72740;-23
2023/07/21 11:14:26;;;;;;;0.80;0.50;;;;;;;24.87;41.14;98693.07;105299;1253;61131;-22
2023/07/21 11:17:01;;;;;;;1.10;0.80;;;;;;;24.96;41.65;98688.83;105336;1262;61070;-23
2023/07/21 11:19:31;;;;;;;1.00;0.60;;;;;;;24.94;41.28;98688.77;105685;1259;73795;-23
2023/07/21 11:21:57;;;;;;;0.70;0.70;;;;;;;25.01;42.64;98688.84;105404;1259;74271;-23
2023/07/21 11:24:28;;;;;;;0.60;0.60;;;;;;;25.01;43.11;98690.11;105340;1254;70379;-23
2023/07/21 11:27:05;;;;;;;1.50;0.60;;;;;;;25.10;41.10;98687.72;105335;1255;61256;-22
2023/07/21 11:29:42;;;;;;;0.90;0.80;;;;;;;25.09;41.61;98685.52;105585;1259;61185;-23
2023/07/21 11:32:19;;;;;;;1.10;0.60;;;;;;;24.75;42.26;98690.57;105659;1262;72747;-23
2023/07/21 11:34:56;;;;;;;0.70;0.60;;;;;;;24.58;43.08;98691.72;105622;1259;74178;-22
2023/07/21 11:37:24;;;;;;;1.60;0.60;;;;;;;24.56;43.09;98691.75;105521;1259;72655;-25
2023/07/21 11:39:55;;;;;;;0.60;0.50;;;;;;;24.62;43.04;98691.66;105167;1254;61762;-24
2023/07/21 11:42:23;;;;;;;1.80;0.60;;;;;;;24.56;43.50;98693.95;105324;1254;61253;-23